Dakin Peak, Santa Catalina Island Weather observations

Data are for 10 minute period ending at time listed.
 Day   Time   Solar   Ave.   Ave.  Ave.  Vector    Max.   Stn.    Total
  of    of     Rad.   Air    Rel.  Wind   Wind     Wind   Baro.  Precip.
Year   Day            Temp.  Hum.  Speed  Dir.     Gust   Pres.         
2015   (PST)   W/m2    F      %     mph   deg.      mph    mb.     in.  
------------------------------------------------------------------------
 242   15:40  410.0    82   40.0     7    264.0    10.2    999.0   0.00  
 242   15:50  385.0    81   43.7     8    266.0    10.8    999.0   0.00  
 242   16:00  359.0    80   44.9     8    257.8    12.5    999.0   0.00  
 242   16:10  332.0    78   47.7     9    260.7    13.1    999.0   0.00  
 242   16:20  305.0    75   53.0    12    260.2    15.5    999.0   0.00  
 242   16:30  278.0    73   55.6    14    261.9    18.5    999.0   0.00  
 242   16:40  251.0    72   55.1    12    260.8    16.1    999.0   0.00  
 242   16:50  224.0    72   56.3    13    257.3    19.1    999.0   0.00  
 242   17:00  197.0    70   60.1    14    255.0    19.1    999.0   0.00  
 242   17:10  171.0    71   56.9    14    259.8    17.9    999.0   0.00  
 242   17:20  145.0    72   52.8    11    258.0    14.9    999.0   0.00  
 242   17:30  119.0    71   55.8    12    249.6    16.1    999.0   0.00  
 242   17:40   94.0    69   59.4     9    240.9    14.9    999.0   0.00  
 242   17:50   67.0    69   58.5    12    254.9    19.7    999.0   0.00  
 242   18:00   23.0    68   62.4    17    256.9    23.3    999.0   0.00  
 242   18:10    7.0    66   65.5    18    255.4    22.1    999.0   0.00  
 242   18:20    4.0    66   68.4    18    256.5    22.7    999.0   0.00  
 242   18:30    3.0    66   66.8    20    260.4    23.3    999.0   0.00  
 242   18:40    0.0    67   58.6    18    260.4    21.5    999.0   0.00  
 242   18:50    0.0    68   56.0    13    256.8    17.3    999.0   0.00  
 242   19:00    0.0    68   57.8    13    251.4    15.5    999.0   0.00  
 242   19:10    0.0    69   51.6    10    256.6    13.1    999.0   0.00  
 242   19:20    0.0    69   52.5     9    276.7    13.1    999.0   0.00  
 242   19:30    0.0    67   62.8    10    280.4    11.9    999.0   0.00  
 242   19:40    0.0    63   80.1    11    276.9    11.9    999.0   0.00  
 242   19:50    0.0    62   83.6    10    281.4    11.3    999.0   0.00  
 242   20:00    0.0    63   78.2     8    283.2     9.6    999.0   0.00  
 242   20:10    0.0    64   71.5     7    294.0     9.0    999.0   0.00  
 242   20:20    0.0    67   59.5     5    322.9     6.6    999.0   0.00  
 242   20:30    0.0    68   58.1     6    298.8     7.2    999.0   0.00  
 242   20:40    0.0    68   56.6     5    303.0     6.0    999.0   0.00  
 242   20:50    0.0    70   52.3     4    335.7     4.8    999.0   0.00  
 242   21:00    0.0    70   49.8     4     20.6     4.8    999.0   0.00  
 242   21:10    0.0    70   48.8     3     10.0     4.8    999.0   0.00  
 242   21:20    0.0    69   55.4     4     41.0     6.0    999.0   0.00  
 242   21:30    0.0    68   60.5     5     77.4     6.0    999.0   0.00  
 242   21:40    0.0    66   66.1     5    106.5     6.0    999.0   0.00  
 242   21:50    0.0    65   72.9     6    119.6     7.8    999.0   0.00  
 242   22:00    0.0    64   78.2     7    120.2     9.6    999.0   0.00  
 242   22:10    0.0    64   86.2     8    120.6    10.8    999.0   0.00  
 242   22:20    0.0    64   88.6     8    118.5    10.2    999.0   0.00  
 242   22:30    0.0    63   89.7     7    115.8     9.0    999.0   0.00  
 242   22:40    0.0    64   90.7     9    108.6    10.2    999.0   0.00  
 242   22:50    0.0    63   92.5     8    105.5     9.6    999.0   0.00  
 242   23:00    0.0    63   92.6     8    102.8     9.6    999.0   0.00  
 242   23:10    0.0    63   94.5     8     97.1    10.2    999.0   0.00  
 242   23:20    0.0    62   96.2     8    106.2     9.6    999.0   0.00  
 242   23:30    0.0    62   96.7     7     98.3     9.6    999.0   0.00  
 242   23:40    0.0    62   97.0     5     94.8     6.6    999.0   0.00  
 242   23:50    0.0    62   97.2     5    107.0     6.0    999.0   0.00  
 243    0:00    0.0    62   97.3     5    131.4     7.2    999.0   0.00  
 243    0:10    0.0    61   97.5     4    141.3     7.2    999.0   0.00  
 243    0:20    2.0    61   97.3     5    147.7     7.2    999.0   0.00  
 243    0:30    1.0    62   89.2     5    143.0     7.8    999.0   0.00  
 243    0:40    0.0    64   78.6     6    127.9     7.8    999.0   0.00  
 243    0:50    0.0    65   80.1     5    130.6     6.6    999.0   0.00  
 243    1:00    0.0    65   81.1     6    133.1     7.2    999.0   0.00  
 243    1:10    0.0    66   74.7     6    132.6     6.6    999.0   0.00  
 243    1:20    0.0    65   78.6     4    122.0     5.4    999.0   0.00  
 243    1:30    0.0    64   84.4     4    106.7     4.8    999.0   0.00  
 243    1:40    0.0    65   77.0     4    123.5     4.8    999.0   0.00  
 243    1:50    0.0    66   74.2     2    154.8     3.6    999.0   0.00  
 243    2:00    0.0    64   78.7     3    171.0     4.2    999.0   0.00  
 243    2:10    0.0    65   75.2     3    147.9     4.2    999.0   0.00  
 243    2:20    0.0    64   78.9     2    187.2     3.6    999.0   0.00  
 243    2:30    0.0    64   77.0     2    121.1     3.6    999.0   0.00  
 243    2:40    0.0    64   79.6     2    184.0     2.4    999.0   0.00  
 243    2:50    0.0    63   80.0     3    167.3     4.8    999.0   0.00  
 243    3:00    0.0    63   82.9     3    143.0     3.6    999.0   0.00  
 243    3:10    0.0    62   79.7     5    179.3     7.2    999.0   0.00  
 243    3:20    0.0    63   75.6     5    191.0     6.6    999.0   0.00  
 243    3:30    0.0    62   78.7     5    185.2     6.0    999.0   0.00  
 243    3:40    0.0    61   82.7     6    185.2     8.4    999.0   0.00  
 243    3:50    0.0    60   87.3     7    199.3     8.4    999.0   0.00  
 243    4:00    0.0    59   91.6     7    217.3    10.8    999.0   0.00  
 243    4:10    0.0    59   91.4     8    224.4    10.8    999.0   0.00  
 243    4:20    0.0    60   87.7     7    221.6     9.6    999.0   0.00  
 243    4:30    0.0    61   84.2     7    225.7     9.6    999.0   0.00  
 243    4:40    0.0    61   83.1     7    227.9    10.2    999.0   0.00  
 243    4:50    0.0    61   83.6     6    223.0     9.0    999.0   0.00  
 243    5:00    0.0    61   82.7     7    218.5     8.4    999.0   0.00  
 243    5:10    0.0    62   79.0     7    191.3     9.0    999.0   0.00  
 243    5:20    0.0    62   80.4     4    119.0     6.0    999.0   0.00  
 243    5:30    1.0    61   84.0     4    105.2     4.8    999.0   0.00  
 243    5:40    5.0    60   87.5     4    137.4     5.4    999.0   0.00  
 243    5:50   19.0    59   89.5     5    179.3     7.8    999.0   0.00  
 243    6:00   45.0    60   89.3     6    171.7     8.4    999.0   0.00  
 243    6:10   75.0    62   86.2     4    136.4     6.6    999.0   0.00  
 243    6:20  101.0    62   86.2     7    120.8    10.2    999.0   0.00  
 243    6:30  127.0    63   87.0     8    117.9    10.8    999.0   0.00  
 243    6:40  124.0    64   86.1    10    118.3    13.1    999.0   0.00  
 243    6:50   76.0    62   90.7    12    118.3    14.9    999.0   0.00  
 243    7:00   77.0    62   92.1    12    117.6    14.9    999.0   0.00  
 243    7:10   64.0    62   92.5    10    114.7    14.3    999.0   0.00  
 243    7:20  122.0    63   90.7     9    112.7    12.5    999.0   0.00  
 243    7:30  108.0    62   90.6     9    112.3    12.5    999.0   0.00  
 243    7:40  142.0    63   88.6     8    114.7    11.3    999.0   0.00  
 243    7:50  186.0    64   86.9     9    116.1    11.9    999.0   0.00  
 243    8:00  201.0    64   86.9    10    114.2    13.1    999.0   0.00  
 243    8:10  223.0    64   85.6    11    110.3    14.9    999.0   0.00  
 243    8:20  195.0    64   86.3     8    102.9    12.5    999.0   0.00  
 243    8:30  174.0    64   87.8    11    106.1    15.5    999.0   0.00  
 243    8:40  165.0    63   89.9    10    107.7    14.9    999.0   0.00  
 243    8:50  221.0    64   86.9     9    104.4    13.7    999.0   0.00  
 243    9:00  235.0    64   87.2     9    105.5    13.1    999.0   0.00  
 243    9:10  256.0    64   86.5    10    103.5    12.5    999.0   0.00  
 243    9:20  287.0    64   86.3    10    104.5    14.3    999.0   0.00  
 243    9:30  296.0    64   86.0     9     98.5    13.7    999.0   0.00  
 243    9:40  307.0    64   86.3    10    103.9    14.9    999.0   0.00  
 243    9:50  273.0    64   85.3    11    107.4    15.5    999.0   0.00  
 243   10:00  331.0    64   85.9    10    107.7    16.1    999.0   0.00  
 243   10:10  448.0    66   82.1     9    108.5    14.3    999.0   0.00  
 243   10:20  429.0    66   80.8     9    115.3    13.1    999.0   0.00  
 243   10:30  593.0    68   78.0     9    114.6    13.7    999.0   0.00  
 243   10:40  596.0    68   76.4     9    110.9    13.7    999.0   0.00  
 243   10:50  699.0    69   74.8     9    110.7    13.7    999.0   0.00  
 243   11:00  703.0    71   70.8     9    116.5    13.7    999.0   0.00  
 243   11:10  698.0    71   69.7    10    112.3    14.3    999.0   0.00  
 243   11:20  702.0    70   72.6     9    115.4    13.7    999.0   0.00  
 243   11:30  703.0    71   70.7     7    114.7    13.7    999.0   0.00  
 243   11:40  710.0    70   71.4     8    102.4    11.9    999.0   0.00  
 243   11:50  711.0    71   71.0     6    105.8     9.6    999.0   0.00  
 243   12:00  715.0    72   68.3     6     98.1     8.4    999.0   0.00  
 243   12:10  713.0    72   67.9     5    106.4    10.2    999.0   0.00  
 243   12:20  710.0    73   66.4     5    100.1     8.4    999.0   0.00  
 243   12:30  706.0    73   66.9     5    106.2     9.0    999.0   0.00  
 243   12:40  703.0    74   65.0     4     99.5     8.4    999.0   0.00  
 243   12:50  697.0    75   64.2     3     77.1     6.0    999.0   0.00  
 243   13:00  689.0    74   64.7     4     77.4     6.6    999.0   0.00  
 243   13:10  683.0    73   66.5     4     60.2     6.0    999.0   0.00  
 243   13:20  671.0    72   68.9     4     64.5     7.2    999.0   0.00  
 243   13:30  661.0    73   67.9     4     86.1     7.8    999.0   0.00  
 243   13:40  645.0    73   68.5     5    110.0     7.2    999.0   0.00  
 243   13:50  630.0    74   66.6     4    101.0     6.6    999.0   0.00  
 243   14:00  616.0    73   67.3     4    101.8     6.0    999.0   0.00  
 243   14:10  602.0    73   66.8     4     90.7     6.0    999.0   0.00  
 243   14:20  583.0    72   68.8     4     46.8     6.0    999.0   0.00  
 243   14:30  564.0    72   68.3     3     69.1     9.6    999.0   0.00  
 243   14:40  545.0    72   67.7     3     73.2     5.4    999.0   0.00  
 243   14:50  524.0    73   67.8     3     33.7     4.8    999.0   0.00  
 243   15:00  502.0    72   68.6     3     83.1     5.4    999.0   0.00  
 243   15:10  481.0    72   70.6     3     37.8     6.0    999.0   0.00  
 243   15:20  459.0    69   76.6     4     14.2     6.0    999.0   0.00  
 243   15:30  434.0    67   81.1     5    352.9     7.2    999.0   0.00  

Return to Dakin Peak graphs page.


Western Regional Climate Center,wrcc@dri.edu